Time;durP1;ratioP1;P1;durP2;ratioP2;P2;SDS_P1;SDS_P2;PMS_P1;PMS_P2;Temp;Humidity;BMP_temperature;BMP_pressure;BME280_temperature;BME280_humidity;BME280_pressure;Samples;Min_cycle;Max_cycle;Signal;HPM_P1;HPM_P2
2023/11/19 08:10:17;;;;;;;8.77;2.03;;;;;;;;;;6261989;23;20031;-82
2023/11/19 08:12:44;;;;;;;6.35;1.77;;;;;;;;;;6262411;23;20004;-84
2023/11/19 08:15:12;;;;;;;7.65;1.83;;;12.60;99.90;;;;;;6236779;23;20038;-82
2023/11/19 08:17:55;;;;;;;4.28;1.63;;;12.80;99.90;;;;;;6233424;23;20043;-83
2023/11/19 08:20:21;;;;;;;5.47;2.00;;;;;;;;;;6232524;23;20060;-81
2023/11/19 08:22:58;;;;;;;4.50;1.77;;;12.80;99.90;;;;;;6229886;23;19997;-81
2023/11/19 08:25:35;;;;;;;4.80;1.83;;;;;;;;;;6204795;23;20013;-83
2023/11/19 08:28:20;;;;;;;5.65;1.75;;;13.90;99.90;;;;;;6227186;23;20073;-82
2023/11/19 08:30:52;;;;;;;6.30;1.85;;;;;;;;;;6201613;23;20021;-82
2023/11/19 08:33:18;;;;;;;4.38;1.65;;;;;;;;;;6196930;23;20346;-81
2023/11/19 08:36:06;;;;;;;4.13;1.48;;;12.90;99.90;;;;;;6225752;23;20008;-83
2023/11/19 08:38:42;;;;;;;3.85;1.45;;;;;;;;;;6201348;23;20004;-83
2023/11/19 08:41:11;;;;;;;6.13;1.88;;;;;;;;;;6230005;23;20004;-82
2023/11/19 09:08:08;;;;;;;5.78;1.77;;;13.40;99.90;;;;;;6273536;22;20003;-85
2023/11/19 09:54:44;;;;;;;4.32;1.42;;;14.10;99.90;;;;;;6258570;22;20023;-82
2023/11/19 09:57:41;;;;;;;3.38;1.30;;;14.10;99.90;;;;;;6273023;22;20035;-83
2023/11/19 10:00:10;;;;;;;3.15;1.20;;;;;;;;;;6264246;22;19996;-81
2023/11/19 10:02:48;;;;;;;;;;;14.20;99.90;;;;;;6275163;22;19996;-84
2023/11/19 10:39:54;;;;;;;4.13;1.58;;;14.70;99.90;;;;;;5110257;27;20374;-82
2023/11/19 10:42:20;;;;;;;3.38;1.10;;;14.60;99.90;;;;;;5096179;28;20032;-81
2023/11/19 10:44:46;;;;;;;3.70;1.55;;;14.50;99.90;;;;;;5097731;28;20052;-81
2023/11/19 10:47:14;;;;;;;3.22;1.20;;;14.60;99.90;;;;;;5094144;28;20036;-85
2023/11/19 10:49:40;;;;;;;4.93;1.50;;;16.50;99.90;;;;;;5089371;28;20024;-82
2023/11/19 10:52:08;;;;;;;2.67;1.02;;;15.20;99.90;;;;;;5087464;28;20031;-81
2023/11/19 10:54:34;;;;;;;3.05;1.00;;;15.00;99.90;;;;;;5096206;28;20048;-84
2023/11/19 10:57:02;;;;;;;3.88;1.27;;;15.00;99.90;;;;;;5088893;28;20036;-81
2023/11/19 10:59:31;;;;;;;3.90;1.02;;;15.00;99.90;;;;;;5084751;28;20510;-80
2023/11/19 11:01:57;;;;;;;4.40;1.37;;;15.00;99.90;;;;;;5085592;28;20444;-85
2023/11/19 11:04:27;;;;;;;3.28;1.30;;;15.00;99.90;;;;;;5093451;28;20021;-79
2023/11/19 11:06:55;;;;;;;3.90;1.00;;;15.00;99.90;;;;;;5087790;28;20114;-81
2023/11/19 11:09:22;;;;;;;3.88;1.20;;;16.70;99.90;;;;;;5085616;28;20037;-82
2023/11/19 11:11:51;;;;;;;5.35;1.25;;;15.10;99.90;;;;;;5094321;28;20022;-81
2023/11/19 11:14:20;;;;;;;8.25;1.23;;;15.10;99.90;;;;;;5096557;28;20016;-81
2023/11/19 11:16:48;;;;;;;2.30;0.98;;;15.10;99.90;;;;;;5096390;28;20412;-80
2023/11/19 11:19:16;;;;;;;4.68;1.05;;;15.10;99.90;;;;;;5092379;28;20037;-83
2023/11/19 11:21:45;;;;;;;3.63;1.02;;;15.00;99.90;;;;;;5089445;28;20028;-83
2023/11/19 11:24:32;;;;;;;4.33;1.20;;;15.00;99.90;;;;;;5092259;28;20020;-81
2023/11/19 11:27:34;;;;;;;6.53;1.20;;;15.00;99.90;;;;;;5087393;28;20270;-85
2023/11/19 11:30:13;;;;;;;7.35;1.50;;;15.00;99.90;;;;;;5090594;28;20088;-84
2023/11/19 11:32:50;;;;;;;6.22;1.42;;;15.00;99.90;;;;;;5095418;28;20369;-86
2023/11/19 11:35:30;;;;;;;5.85;1.42;;;15.00;99.90;;;;;;5089036;28;20031;-81
2023/11/19 11:38:03;;;;;;;6.32;1.42;;;14.90;99.90;;;;;;5095344;28;20032;-82
2023/11/19 11:40:29;;;;;;;4.18;1.20;;;14.80;99.90;;;;;;5086523;28;20452;-79
2023/11/19 11:42:55;;;;;;;3.72;1.05;;;14.90;99.90;;;;;;5061306;28;20032;-82
2023/11/19 11:45:35;;;;;;;3.17;0.90;;;14.90;99.90;;;;;;5078310;28;20024;-81
2023/11/19 11:48:11;;;;;;;;;;;15.40;99.90;;;;;;5078477;28;20039;-83
2023/11/19 11:50:57;;;;;;;6.07;1.50;;;14.90;99.90;;;;;;5083188;28;19940;-86
2023/11/19 11:53:24;;;;;;;5.00;1.27;;;;;;;;;;5077225;28;20029;-82
2023/11/19 11:55:50;;;;;;;8.90;1.60;;;;;;;;;;5078004;28;20645;-83
2023/11/19 11:58:20;;;;;;;3.10;1.50;;;14.60;99.90;;;;;;5081858;28;20068;-80
2023/11/19 12:00:47;;;;;;;;;;;14.60;99.90;;;;;;5080137;28;20031;-81
2023/11/19 12:03:13;;;;;;;5.50;1.35;;;;;;;;;;5075229;28;20003;-81
2023/11/19 12:05:40;;;;;;;5.75;1.77;;;14.50;99.90;;;;;;5082862;28;20062;-84
2023/11/19 12:08:10;;;;;;;5.45;1.58;;;14.50;99.90;;;;;;5074510;28;20070;-83
2023/11/19 12:10:48;;;;;;;5.68;1.38;;;14.20;99.90;;;;;;5076579;28;20029;-82
2023/11/19 12:13:15;;;;;;;3.53;1.20;;;;;;;;;;5074276;28;20032;-84
2023/11/19 12:15:56;;;;;;;4.75;1.58;;;;;;;;;;5082017;28;20080;-84
2023/11/19 12:18:32;;;;;;;5.82;1.40;;;14.30;99.90;;;;;;5079752;28;20123;-84
2023/11/19 12:21:01;;;;;;;4.88;1.35;;;14.30;99.90;;;;;;5073499;28;20041;-85
2023/11/19 12:23:34;;;;;;;4.28;1.13;;;;;;;;;;5076600;28;20024;-85
2023/11/19 12:26:00;;;;;;;7.25;1.48;;;;;;;;;;5076179;28;20029;-83
2023/11/19 12:28:27;;;;;;;5.40;1.50;;;;;;;;;;5071131;28;20029;-84
2023/11/19 12:30:53;;;;;;;7.60;1.30;;;;;;;;;;5076164;28;20024;-85
2023/11/19 12:33:22;;;;;;;6.68;1.55;;;;;;;;;;5075893;28;20034;-83
2023/11/19 12:35:49;;;;;;;7.35;1.63;;;;;;;;;;5074417;28;20060;-83
2023/11/19 12:38:25;;;;;;;3.50;1.40;;;14.50;99.90;;;;;;5078834;28;20046;-85
2023/11/19 12:41:08;;;;;;;5.85;1.60;;;14.50;99.90;;;;;;5095394;28;20039;-86
2023/11/19 12:43:34;;;;;;;5.40;1.50;;;;;;;;;;5073503;28;20033;-83
2023/11/19 12:46:00;;;;;;;5.60;1.70;;;14.50;99.90;;;;;;5068733;28;20028;-81
2023/11/19 12:48:26;;;;;;;5.88;1.20;;;15.30;99.90;;;;;;5079239;28;20045;-82
2023/11/19 12:50:55;;;;;;;8.32;1.80;;;14.70;99.90;;;;;;5078652;28;20108;-82
2023/11/19 12:53:26;;;;;;;5.40;1.40;;;14.70;99.90;;;;;;5071357;28;20028;-79
2023/11/19 12:55:52;;;;;;;10.80;1.88;;;14.70;99.90;;;;;;5074362;28;20502;-84
2023/11/19 12:58:34;;;;;;;7.38;1.85;;;14.70;99.90;;;;;;5072967;28;20040;-84
2023/11/19 13:01:04;;;;;;;4.20;1.23;;;14.70;99.90;;;;;;5080341;28;20096;-82
2023/11/19 13:03:34;;;;;;;5.18;1.35;;;15.10;99.90;;;;;;5078709;28;20032;-82
2023/11/19 13:06:08;;;;;;;8.65;1.80;;;14.70;99.90;;;;;;5074347;28;20040;-82
2023/11/19 13:08:54;;;;;;;6.20;1.67;;;14.60;99.90;;;;;;5068823;28;20229;-80
2023/11/19 13:11:34;;;;;;;4.18;1.33;;;14.60;99.90;;;;;;5080539;28;20050;-84
2023/11/19 13:14:04;;;;;;;7.43;1.83;;;14.60;99.90;;;;;;5073541;28;20020;-83
2023/11/19 13:16:30;;;;;;;5.75;1.17;;;;;;;;;;5079407;28;20506;-83
2023/11/19 13:18:56;;;;;;;9.43;1.50;;;;;;;;;;5073632;28;20029;-83
2023/11/19 13:21:22;;;;;;;3.47;1.55;;;;;;;;;;5076634;28;20112;-82
2023/11/19 13:23:48;;;;;;;6.28;1.50;;;;;;;;;;5081920;28;20063;-82
2023/11/19 13:26:14;;;;;;;5.05;1.33;;;;;;;;;;5072814;28;20045;-81
2023/11/19 13:28:40;;;;;;;2.83;1.00;;;;;;;;;;5075169;28;20468;-84
2023/11/19 13:31:07;;;;;;;6.47;1.23;;;;;;;;;;5078211;28;20040;-81
2023/11/19 13:33:33;;;;;;;5.05;1.40;;;;;;;;;;5075788;28;20051;-82
2023/11/19 13:36:05;;;;;;;5.28;1.20;;;;;;;;;;5085184;28;20024;-81
2023/11/19 13:38:34;;;;;;;5.07;1.02;;;14.90;99.90;;;;;;5075477;28;20044;-82
2023/11/19 13:41:00;;;;;;;5.63;1.73;;;;;;;;;;5083068;28;20032;-83
2023/11/19 13:43:27;;;;;;;9.45;1.40;;;;;;;;;;5075605;28;20032;-82
2023/11/19 13:45:54;;;;;;;5.38;1.20;;;14.90;99.90;;;;;;5072875;28;20036;-83
2023/11/19 13:48:19;;;;;;;3.97;1.30;;;14.80;99.90;;;;;;5077969;28;20048;-82
2023/11/19 13:50:45;;;;;;;4.38;1.23;;;16.00;99.90;;;;;;5073862;28;20036;-83
2023/11/19 13:53:11;;;;;;;3.28;0.98;;;14.80;99.90;;;;;;5072662;28;20032;-81
2023/11/19 13:55:36;;;;;;;6.10;1.30;;;14.90;99.90;;;;;;5068146;28;20256;-81
2023/11/19 13:58:02;;;;;;;5.38;1.20;;;;;;;;;;5076210;28;20021;-85
2023/11/19 14:00:28;;;;;;;5.88;1.38;;;;;;;;;;5069865;28;20107;-80
2023/11/19 14:02:54;;;;;;;6.05;1.67;;;;;;;;;;5081578;28;20046;-81
2023/11/19 14:05:20;;;;;;;6.78;1.45;;;14.60;99.90;;;;;;5072556;28;20029;-81
2023/11/19 14:07:48;;;;;;;8.68;1.60;;;14.50;99.90;;;;;;5085234;28;20036;-89
2023/11/19 14:10:14;;;;;;;5.30;1.67;;;;;;;;;;5077128;28;20024;-89
2023/11/19 14:12:41;;;;;;;7.10;1.40;;;;;;;;;;5087384;28;20054;-91
2023/11/19 14:15:07;;;;;;;7.50;1.60;;;;;;;;;;5079821;28;20096;-88
2023/11/19 14:17:34;;;;;;;8.27;1.90;;;14.30;99.90;;;;;;5083097;28;20089;-90
2023/11/19 14:20:00;;;;;;;6.47;1.30;;;;;;;;;;5091332;28;20028;-90
2023/11/19 14:22:26;;;;;;;4.45;1.42;;;;;;;;;;5090112;28;20058;-89
2023/11/19 14:24:53;;;;;;;6.65;1.33;;;;;;;;;;5086025;28;20016;-90
2023/11/19 14:27:19;;;;;;;7.03;1.65;;;;;;;;;;5085218;28;20074;-88
2023/11/19 14:29:45;;;;;;;9.68;1.98;;;14.30;99.90;;;;;;5080703;28;20028;-91
2023/11/19 14:32:11;;;;;;;8.05;1.90;;;;;;;;;;5066737;28;20033;-90
2023/11/19 14:34:38;;;;;;;6.05;1.75;;;;;;;;;;5084035;28;20067;-86
2023/11/19 14:37:03;;;;;;;4.15;1.55;;;14.30;99.90;;;;;;5087510;28;20099;-88
2023/11/19 14:39:32;;;;;;;6.22;1.48;;;;;;;;;;5082574;28;20028;-91
2023/11/19 14:42:00;;;;;;;8.23;2.30;;;;;;;;;;5080994;28;20016;-89
2023/11/19 14:44:27;;;;;;;5.88;1.48;;;;;;;;;;5089581;28;20029;-90
2023/11/19 14:46:53;;;;;;;5.57;1.55;;;;;;;;;;5081297;28;20029;-91
2023/11/19 14:49:19;;;;;;;4.55;1.60;;;;;;;;;;5082699;28;20028;-90
2023/11/19 14:51:45;;;;;;;7.95;1.55;;;;;;;;;;5085764;28;20027;-91
2023/11/19 14:54:11;;;;;;;4.18;1.27;;;;;;;;;;5089363;28;20033;-88
2023/11/19 14:56:38;;;;;;;9.85;1.52;;;;;;;;;;5083447;28;20032;-88
2023/11/19 14:59:04;;;;;;;4.30;1.55;;;;;;;;;;5084097;28;20016;-89
2023/11/19 15:01:30;;;;;;;6.95;1.50;;;;;;;;;;5079984;28;20052;-87
2023/11/19 15:03:56;;;;;;;7.30;1.92;;;;;;;;;;5083055;28;20020;-89
2023/11/19 15:06:27;;;;;;;9.07;2.17;;;;;;;;;;5075168;28;20016;-90
2023/11/19 15:08:53;;;;;;;9.48;2.17;;;;;;;;;;5088399;28;20040;-88
2023/11/19 15:11:19;;;;;;;8.52;2.53;;;;;;;;;;5086546;28;20048;-88
2023/11/19 15:13:45;;;;;;;10.25;2.25;;;;;;;;;;5087505;28;20065;-89
2023/11/19 15:16:11;;;;;;;10.27;1.98;;;;;;;;;;5094403;28;20028;-89
2023/11/19 15:18:38;;;;;;;8.65;2.80;;;;;;;;;;5093775;28;20032;-87
2023/11/19 15:21:04;;;;;;;9.77;2.80;;;13.80;99.90;;;;;;5091390;28;20030;-87
2023/11/19 15:23:30;;;;;;;6.63;1.77;;;;;;;;;;5097246;28;20013;-89
2023/11/19 15:25:56;;;;;;;7.45;1.50;;;;;;;;;;5095628;28;20051;-88
2023/11/19 15:28:23;;;;;;;7.20;2.00;;;;;;;;;;5091191;28;20033;-89
2023/11/19 15:30:49;;;;;;;8.23;2.45;;;;;;;;;;5086597;28;20024;-90
2023/11/19 15:33:15;;;;;;;9.00;2.30;;;;;;;;;;5082530;28;20028;-89
2023/11/19 15:35:41;;;;;;;6.93;2.33;;;;;;;;;;5081302;28;20029;-90
2023/11/19 15:38:09;;;;;;;9.57;2.63;;;13.70;99.90;;;;;;5081595;28;20185;-90
2023/11/19 15:40:36;;;;;;;6.97;2.00;;;;;;;;;;5066099;28;20183;-90
2023/11/19 15:43:03;;;;;;;8.40;3.33;;;13.60;99.90;;;;;;5082056;28;20017;-90
2023/11/19 15:45:28;;;;;;;9.20;2.70;;;14.30;99.90;;;;;;5077329;28;20032;-88
2023/11/19 15:47:54;;;;;;;6.60;2.17;;;14.80;99.90;;;;;;5074291;28;20039;-89
2023/11/19 15:50:20;;;;;;;9.95;2.63;;;;;;;;;;5081502;28;20096;-91
2023/11/19 15:52:47;;;;;;;15.68;3.58;;;13.60;99.90;;;;;;5080860;28;20021;-91
2023/11/19 15:55:13;;;;;;;9.70;3.13;;;13.60;99.90;;;;;;5079617;28;20024;-88
2023/11/19 15:57:39;;;;;;;11.20;3.10;;;13.60;99.90;;;;;;5081866;28;20108;-91
2023/11/19 16:00:05;;;;;;;9.45;2.75;;;14.50;99.90;;;;;;5072079;28;20025;-90
2023/11/19 16:02:31;;;;;;;9.50;2.40;;;;;;;;;;5081225;28;20032;-89
2023/11/19 16:04:57;;;;;;;7.88;2.35;;;;;;;;;;5084904;28;20028;-86
2023/11/19 16:07:22;;;;;;;7.72;1.40;;;13.50;99.90;;;;;;5078328;28;20047;-90
2023/11/19 16:09:48;;;;;;;8.18;2.15;;;;;;;;;;5064470;28;20033;-90
2023/11/19 16:12:14;;;;;;;8.25;1.85;;;13.40;99.90;;;;;;5082633;28;20024;-90
2023/11/19 16:14:41;;;;;;;8.73;1.77;;;14.30;99.90;;;;;;5076867;28;20024;-91
2023/11/19 16:17:06;;;;;;;11.05;2.03;;;14.00;99.90;;;;;;5087195;28;20025;-90
2023/11/19 16:19:38;;;;;;;8.30;1.70;;;13.30;99.90;;;;;;5082918;28;20102;-90
2023/11/19 16:22:09;;;;;;;10.40;1.92;;;13.40;99.90;;;;;;5066881;28;20237;-88
2023/11/19 16:24:36;;;;;;;11.23;2.35;;;13.30;99.90;;;;;;5083885;28;20016;-92
2023/11/19 16:27:03;;;;;;;7.50;2.20;;;13.70;99.90;;;;;;5084546;28;20035;-90
2023/11/19 16:29:28;;;;;;;7.75;2.35;;;13.30;99.90;;;;;;5089245;28;20017;-87
2023/11/19 16:31:54;;;;;;;8.23;2.22;;;13.30;99.90;;;;;;5092150;28;20922;-90
2023/11/19 16:34:20;;;;;;;9.13;2.30;;;13.10;99.90;;;;;;5090113;28;20021;-88
2023/11/19 16:36:45;;;;;;;11.48;2.38;;;13.30;99.90;;;;;;5090203;28;20036;-88
2023/11/19 16:39:14;;;;;;;10.57;2.78;;;13.10;99.90;;;;;;5094236;28;20119;-89
2023/11/19 16:41:40;;;;;;;8.10;2.30;;;13.10;99.90;;;;;;5072703;28;20024;-89
2023/11/19 16:44:41;;;;;;;9.95;3.05;;;13.00;99.90;;;;;;5095822;28;20008;-90
2023/11/19 16:47:07;;;;;;;10.40;2.75;;;13.40;99.90;;;;;;5087766;28;20036;-88
2023/11/19 16:49:33;;;;;;;12.70;2.58;;;13.30;99.90;;;;;;5094059;28;20036;-89
2023/11/19 16:51:59;;;;;;;12.07;2.30;;;15.50;99.90;;;;;;5093229;28;20024;-89
2023/11/19 16:54:25;;;;;;;6.20;1.73;;;15.40;99.90;;;;;;5098426;28;20009;-89
2023/11/19 16:56:50;;;;;;;10.55;2.05;;;14.10;99.90;;;;;;5091549;28;20940;-88
2023/11/19 16:59:16;;;;;;;10.55;3.00;;;14.00;99.90;;;;;;5089376;28;20032;-91
2023/11/19 17:01:42;;;;;;;9.93;2.50;;;14.80;99.90;;;;;;5094461;28;20142;-87
2023/11/19 17:04:08;;;;;;;8.23;2.00;;;;;;;;;;5096131;28;20031;-87
2023/11/19 17:06:35;;;;;;;6.82;2.17;;;12.90;99.90;;;;;;5095147;28;20052;-89
2023/11/19 17:09:00;;;;;;;10.52;2.15;;;12.90;99.90;;;;;;5091093;28;20032;-89
2023/11/19 17:11:26;;;;;;;7.85;2.30;;;12.70;99.90;;;;;;5089071;28;20032;-88
2023/11/19 17:13:53;;;;;;;9.05;2.70;;;13.60;99.90;;;;;;5086608;28;20043;-90
2023/11/19 17:16:19;;;;;;;9.27;1.77;;;13.80;99.90;;;;;;5079372;28;20051;-91
2023/11/19 17:18:44;;;;;;;12.23;2.75;;;13.30;99.90;;;;;;5084162;28;20451;-89
2023/11/19 17:21:10;;;;;;;11.70;2.33;;;12.70;99.90;;;;;;5084950;28;20116;-89
2023/11/19 17:23:36;;;;;;;11.35;2.78;;;14.20;99.90;;;;;;5080464;28;20138;-89
2023/11/19 17:26:05;;;;;;;34.72;17.23;;;13.40;99.90;;;;;;5083108;28;20064;-90
2023/11/19 17:28:34;;;;;;;12.82;4.35;;;12.60;99.90;;;;;;5074924;28;20025;-89
2023/11/19 17:31:00;;;;;;;10.15;2.60;;;12.40;99.90;;;;;;5083843;28;20036;-89
2023/11/19 17:33:26;;;;;;;11.93;3.03;;;14.20;99.90;;;;;;5089694;28;20024;-89
2023/11/19 17:35:51;;;;;;;13.20;3.88;;;13.20;99.90;;;;;;5088074;28;20024;-89
2023/11/19 17:38:20;;;;;;;15.80;2.85;;;11.70;99.90;;;;;;5088485;28;20104;-88
2023/11/19 17:40:47;;;;;;;11.55;3.70;;;14.30;99.90;;;;;;5085299;28;20073;-89
2023/11/19 17:43:53;;;;;;;12.43;5.55;;;14.40;99.90;;;;;;5083513;28;20021;-89
2023/11/19 17:46:22;;;;;;;12.45;3.90;;;12.50;99.90;;;;;;5024320;28;20042;-90
2023/11/19 17:48:59;;;;;;;12.00;3.00;;;13.10;99.90;;;;;;5082426;28;20036;-88
2023/11/19 17:51:34;;;;;;;11.05;3.92;;;11.50;99.90;;;;;;5084263;28;20025;-90
2023/11/19 17:54:00;;;;;;;11.77;3.63;;;12.40;99.90;;;;;;5086626;28;20084;-88
2023/11/19 17:56:39;;;;;;;10.65;4.35;;;14.40;99.90;;;;;;5093512;28;20020;-89
2023/11/19 17:59:34;;;;;;;12.70;3.47;;;12.40;99.90;;;;;;5093179;28;20092;-91
2023/11/19 18:02:02;;;;;;;15.27;2.80;;;11.80;99.90;;;;;;5095301;28;20009;-89
2023/11/19 18:04:48;;;;;;;;;;;;;;;;;;;;;
2023/11/19 18:07:22;;;;;;;13.40;3.03;;;13.00;99.90;;;;;;5090688;28;20025;-87
2023/11/19 18:10:02;;;;;;;11.07;3.53;;;12.20;99.90;;;;;;5091508;28;20075;-89
2023/11/19 18:12:40;;;;;;;19.25;4.22;;;12.30;99.90;;;;;;5096180;28;20025;-88
2023/11/19 18:15:19;;;;;;;17.83;4.18;;;12.30;99.90;;;;;;5095271;28;20012;-87
2023/11/19 18:17:50;;;;;;;11.05;3.00;;;12.60;99.90;;;;;;5086167;28;20032;-89
2023/11/19 18:20:31;;;;;;;11.90;2.90;;;12.40;99.90;;;;;;5089279;28;20024;-90
2023/11/19 18:22:58;;;;;;;14.60;2.13;;;12.40;99.90;;;;;;5094737;28;20019;-88
2023/11/19 18:25:24;;;;;;;9.68;2.15;;;12.30;99.90;;;;;;5098940;28;20032;-92
2023/11/19 18:27:50;;;;;;;10.30;2.90;;;12.40;99.90;;;;;;5092400;28;20035;-87
2023/11/19 18:30:15;;;;;;;14.02;2.60;;;12.40;99.90;;;;;;5095439;28;20012;-88
2023/11/19 18:32:42;;;;;;;14.27;2.92;;;12.40;99.90;;;;;;5092744;28;20012;-88
2023/11/19 18:35:28;;;;;;;13.23;3.03;;;13.60;99.90;;;;;;5093274;28;20112;-90
2023/11/19 18:37:57;;;;;;;12.73;2.83;;;12.30;99.90;;;;;;5092089;28;20040;-88
2023/11/19 18:40:23;;;;;;;16.75;3.10;;;13.30;99.90;;;;;;5095928;28;20020;-89
2023/11/19 18:42:49;;;;;;;10.98;2.17;;;12.40;99.90;;;;;;5097727;28;20052;-89
2023/11/19 18:45:16;;;;;;;11.60;2.83;;;11.50;99.90;;;;;;5096773;28;20028;-86
2023/11/19 18:47:41;;;;;;;11.93;2.60;;;12.50;99.90;;;;;;5096519;28;20051;-88
2023/11/19 18:50:10;;;;;;;14.23;3.13;;;13.00;99.90;;;;;;5088949;28;20036;-89
2023/11/19 18:52:36;;;;;;;14.13;3.38;;;12.40;99.90;;;;;;5096640;28;20035;-89
2023/11/19 18:55:03;;;;;;;12.95;2.42;;;12.60;99.90;;;;;;5090795;28;20016;-89
2023/11/19 18:57:30;;;;;;;11.73;3.00;;;12.40;99.90;;;;;;5093841;28;20031;-89
2023/11/19 18:59:56;;;;;;;9.75;2.38;;;12.60;99.90;;;;;;5100219;28;20073;-91
2023/11/19 19:02:23;;;;;;;13.27;2.53;;;12.60;99.90;;;;;;5096497;28;20017;-90
2023/11/19 19:04:48;;;;;;;11.23;2.45;;;12.60;99.90;;;;;;5097758;28;20054;-89
2023/11/19 19:07:18;;;;;;;11.93;2.40;;;12.60;99.90;;;;;;5093521;28;20024;-89
2023/11/19 19:09:45;;;;;;;14.63;2.97;;;12.70;99.90;;;;;;5096016;28;20017;-90
2023/11/19 19:12:11;;;;;;;11.50;2.50;;;12.60;99.90;;;;;;5096492;28;20008;-89
2023/11/19 19:14:36;;;;;;;13.95;2.50;;;12.50;99.90;;;;;;5097948;28;20047;-90
2023/11/19 19:17:03;;;;;;;12.45;2.70;;;13.50;99.90;;;;;;5096143;28;20066;-88
2023/11/19 19:19:30;;;;;;;11.13;2.05;;;12.60;99.90;;;;;;5100540;28;20020;-89
2023/11/19 19:21:55;;;;;;;13.45;2.83;;;12.60;99.90;;;;;;5102452;28;20072;-89
2023/11/19 19:24:21;;;;;;;13.25;2.78;;;13.90;99.90;;;;;;5094534;28;20019;-89
2023/11/19 19:26:47;;;;;;;12.38;2.45;;;12.40;99.90;;;;;;5098314;28;20017;-90
2023/11/19 19:29:12;;;;;;;16.75;2.70;;;12.60;99.90;;;;;;5102506;28;20046;-89
2023/11/19 19:31:38;;;;;;;14.45;2.90;;;12.60;99.90;;;;;;5095883;28;20016;-90
2023/11/19 19:34:04;;;;;;;15.60;3.00;;;12.60;99.90;;;;;;5099765;28;20031;-89
2023/11/19 19:36:32;;;;;;;18.02;3.10;;;13.20;99.90;;;;;;5097090;28;20020;-88
2023/11/19 19:38:59;;;;;;;10.50;3.05;;;12.50;99.90;;;;;;5093682;28;20100;-90
2023/11/19 19:41:28;;;;;;;10.80;2.42;;;14.00;99.90;;;;;;5091566;28;20021;-88
2023/11/19 19:43:57;;;;;;;14.38;2.65;;;13.50;99.90;;;;;;5098256;28;20032;-89
2023/11/19 19:46:24;;;;;;;14.27;2.60;;;14.10;99.90;;;;;;5094663;28;20005;-89
2023/11/19 19:48:53;;;;;;;15.10;2.60;;;12.40;99.90;;;;;;5093800;28;20032;-88
2023/11/19 19:51:20;;;;;;;15.85;2.80;;;13.50;99.90;;;;;;5089695;28;20108;-87
2023/11/19 19:53:48;;;;;;;15.73;2.42;;;12.60;99.90;;;;;;5095561;28;20020;-89
2023/11/19 19:56:15;;;;;;;14.43;2.40;;;12.40;99.90;;;;;;5097366;28;20037;-89
2023/11/19 19:58:42;;;;;;;15.15;3.13;;;12.40;99.90;;;;;;5093457;28;20047;-90
2023/11/19 20:01:08;;;;;;;12.30;3.03;;;12.60;99.90;;;;;;5091834;28;20100;-90
2023/11/19 20:03:35;;;;;;;12.93;2.45;;;12.30;99.90;;;;;;5095891;28;20044;-90
2023/11/19 20:06:04;;;;;;;11.68;2.30;;;12.40;99.90;;;;;;5097928;28;20017;-89
2023/11/19 20:08:32;;;;;;;17.08;3.08;;;12.50;99.90;;;;;;5094361;28;20021;-89
2023/11/19 20:11:01;;;;;;;16.48;2.60;;;12.60;99.90;;;;;;5099612;28;20032;-90
2023/11/19 20:13:29;;;;;;;10.60;2.22;;;13.70;99.90;;;;;;5095656;28;20028;-88
2023/11/19 20:15:58;;;;;;;17.15;3.13;;;14.60;99.90;;;;;;5101246;28;20024;-88
2023/11/19 20:18:23;;;;;;;16.85;2.60;;;12.70;99.90;;;;;;5100072;28;20042;-87
2023/11/19 20:20:54;;;;;;;12.48;2.72;;;14.10;99.90;;;;;;5096695;28;20008;-90
2023/11/19 20:23:20;;;;;;;12.73;2.85;;;12.50;99.90;;;;;;5098603;28;20032;-90
2023/11/19 20:25:46;;;;;;;16.30;2.60;;;12.50;99.90;;;;;;5098709;28;20021;-90
2023/11/19 20:28:12;;;;;;;11.65;2.67;;;14.50;99.90;;;;;;5096964;28;20032;-90
2023/11/19 20:30:47;;;;;;;20.63;3.85;;;12.40;99.90;;;;;;5097983;28;20076;-91
2023/11/19 20:33:12;;;;;;;15.68;2.80;;;12.40;99.90;;;;;;5103919;28;20013;-89
2023/11/19 20:35:47;;;;;;;14.65;2.97;;;12.30;99.90;;;;;;5098360;28;20034;-88
2023/11/19 20:38:13;;;;;;;16.30;2.70;;;12.30;99.90;;;;;;5104581;28;20009;-89
2023/11/19 20:40:41;;;;;;;11.75;2.35;;;12.40;99.90;;;;;;5093197;28;20039;-90
2023/11/19 20:43:07;;;;;;;17.95;2.70;;;12.70;99.90;;;;;;5090881;28;20009;-88
2023/11/19 20:45:33;;;;;;;15.77;2.53;;;12.50;99.90;;;;;;5102358;28;20016;-88
2023/11/19 20:47:58;;;;;;;13.75;2.50;;;13.70;99.90;;;;;;5099828;28;20034;-87
2023/11/19 20:50:30;;;;;;;15.90;2.33;;;12.70;99.90;;;;;;5094048;28;20043;-88
2023/11/19 20:52:56;;;;;;;14.48;2.20;;;12.50;99.90;;;;;;5095496;28;20056;-88
2023/11/19 20:55:22;;;;;;;16.67;3.05;;;14.20;99.90;;;;;;5102942;28;20017;-90
2023/11/19 20:57:49;;;;;;;18.08;2.70;;;12.40;99.90;;;;;;5099103;28;20052;-89
2023/11/19 21:00:24;;;;;;;16.42;3.58;;;14.40;99.90;;;;;;5091601;28;20028;-89
